createdAt,value
2022-10-06T05:44:29.805Z,78.86
2022-10-06T05:47:29.509Z,78.15
2022-10-06T05:50:24.672Z,76.77
2022-10-06T05:53:24.723Z,78.07
2022-10-06T05:56:37.764Z,77.12
2022-10-06T05:59:32.665Z,75.96
2022-10-06T06:02:15.895Z,76.39
2022-10-06T06:05:09.086Z,75.80
2022-10-06T06:07:51.005Z,75.80
2022-10-06T06:10:42.701Z,75.06
2022-10-06T06:13:42.998Z,75.10
2022-10-06T06:16:34.164Z,74.92
2022-10-06T06:19:29.153Z,75.31
2022-10-06T06:22:25.093Z,75.62
2022-10-06T06:25:14.875Z,75.45
2022-10-06T06:28:12.586Z,75.18
2022-10-06T06:30:45.455Z,74.50
2022-10-06T06:33:45.539Z,73.92
2022-10-06T06:36:32.031Z,73.57
2022-10-06T06:39:43.141Z,74.02
2022-10-06T06:42:30.008Z,73.70
2022-10-06T06:45:06.295Z,73.29
2022-10-06T06:47:57.085Z,72.86
2022-10-06T06:50:37.656Z,72.99
2022-10-06T06:53:21.472Z,73.61
2022-10-06T06:56:08.729Z,73.37
2022-10-06T06:58:53.780Z,73.59
2022-10-06T07:01:22.323Z,73.75
2022-10-06T07:03:59.873Z,74.09
2022-10-06T07:06:40.535Z,73.60
2022-10-06T07:09:35.563Z,73.97
2022-10-06T07:18:09.344Z,72.41
2022-10-06T07:21:02.859Z,72.69
2022-10-06T07:23:50.754Z,73.21
2022-10-06T07:26:37.937Z,73.12
2022-10-06T07:29:15.961Z,74.07
2022-10-06T07:32:03.362Z,73.72
2022-10-06T07:37:30.690Z,72.89
2022-10-06T07:40:09.977Z,72.11
2022-10-06T07:42:53.919Z,71.47
2022-10-06T07:45:45.388Z,72.17
2022-10-06T07:48:24.289Z,73.62
2022-10-06T07:51:02.884Z,71.73
2022-10-06T07:53:40.646Z,72.13
2022-10-06T07:56:27.252Z,71.43
2022-10-06T07:59:07.301Z,71.32
2022-10-06T08:01:46.165Z,72.57
2022-10-06T08:04:42.042Z,71.14
2022-10-06T08:07:21.910Z,69.87
2022-10-06T08:10:01.079Z,68.75
2022-10-06T08:12:51.455Z,69.23
2022-10-06T08:19:22.500Z,67.30
2022-10-06T11:12:21.720Z,49.62
2022-10-06T11:15:09.867Z,45.32
2022-10-06T11:17:50.377Z,43.55
2022-10-06T11:20:54.784Z,43.07
2022-10-06T11:23:47.224Z,37.82
2022-10-06T11:26:21.081Z,39.41
2022-10-06T11:29:15.232Z,45.30
2022-10-06T11:32:14.836Z,40.18
2022-10-06T11:34:45.296Z,39.07
2022-10-06T11:37:12.002Z,44.01
2022-10-06T11:40:17.106Z,45.19
2022-10-06T11:42:54.354Z,44.61
2022-10-06T11:45:35.435Z,43.07
2022-10-06T11:48:25.335Z,41.17
2022-10-06T11:50:55.777Z,46.51
2022-10-06T11:53:40.905Z,42.02
2022-10-06T11:56:38.582Z,42.93
2022-10-06T11:59:25.655Z,38.67
2022-10-06T12:02:48.335Z,41.80
2022-10-06T12:05:56.296Z,45.20
2022-10-06T12:08:44.459Z,46.52
2022-10-06T12:11:37.978Z,42.71
2022-10-06T12:17:19.566Z,41.56
2022-10-06T12:20:15.816Z,39.09
2022-10-06T12:22:51.587Z,42.70
2022-10-06T12:25:47.814Z,47.43
2022-10-06T12:28:42.263Z,44.75
2022-10-06T12:31:40.135Z,41.94
2022-10-06T12:34:49.465Z,45.14
2022-10-06T12:37:53.113Z,45.21
2022-10-06T12:40:59.614Z,40.24
2022-10-06T12:43:38.029Z,46.86
2022-10-06T12:46:23.043Z,44.70
2022-10-06T12:49:34.871Z,36.65
2022-10-06T12:52:47.569Z,38.41
2022-10-06T12:55:33.124Z,32.91
2022-10-06T12:58:02.656Z,37.03
2022-10-06T13:00:41.359Z,38.75
2022-10-06T13:03:25.276Z,39.64
2022-10-06T13:05:59.112Z,41.22
2022-10-06T13:08:35.715Z,43.19
2022-10-06T13:11:25.012Z,50.11
2022-10-06T13:13:54.759Z,43.15
2022-10-06T13:16:31.775Z,41.32
2022-10-06T13:19:03.850Z,50.94
2022-10-06T13:21:34.835Z,46.25
2022-10-06T13:24:04.069Z,39.62
2022-10-06T13:26:34.154Z,46.29
2022-10-06T13:29:01.318Z,44.87
2022-10-06T13:31:33.657Z,43.29
2022-10-06T13:34:24.736Z,45.92
2022-10-06T13:37:02.761Z,42.34
2022-10-06T13:39:44.852Z,44.16
2022-10-06T13:42:22.877Z,44.29
2022-10-06T13:45:04.028Z,47.89
2022-10-06T13:47:34.526Z,43.32
2022-10-06T13:50:19.599Z,43.78
2022-10-06T13:52:54.618Z,44.67
2022-10-06T13:55:26.715Z,36.88
2022-10-06T13:58:06.821Z,44.73
2022-10-06T14:01:01.212Z,41.97
2022-10-06T14:06:11.382Z,39.16
2022-10-06T14:08:52.992Z,34.14
2022-10-06T14:11:38.042Z,39.72
2022-10-06T14:14:16.835Z,45.48
2022-10-06T14:16:52.922Z,47.14
2022-10-06T14:19:35.649Z,45.46
2022-10-06T14:22:07.810Z,36.14
2022-10-06T14:24:37.541Z,39.29
2022-10-06T14:27:07.933Z,45.11
2022-10-06T14:29:43.821Z,42.14
2022-10-06T14:32:33.877Z,40.07
2022-10-06T14:35:04.923Z,32.49
2022-10-06T14:37:42.120Z,36.35
2022-10-06T14:40:14.804Z,36.72
2022-10-06T14:43:01.958Z,39.12
2022-10-06T14:45:28.898Z,40.01
2022-10-06T14:48:31.757Z,40.47
2022-10-06T14:51:20.763Z,39.04
2022-10-06T14:54:00.417Z,42.19
2022-10-06T14:56:41.123Z,45.33
2022-10-06T14:59:17.174Z,41.92
2022-10-06T15:01:47.993Z,45.68
2022-10-06T15:04:26.407Z,44.95
2022-10-06T15:07:12.428Z,41.28
2022-10-06T15:09:43.948Z,45.14
2022-10-06T15:12:15.464Z,44.31
2022-10-06T15:14:42.422Z,45.64
2022-10-06T15:17:31.604Z,44.55
2022-10-06T15:20:10.091Z,42.07
2022-10-06T15:22:46.417Z,41.74
2022-10-06T15:26:10.856Z,38.35
2022-10-06T15:29:22.753Z,42.89
2022-10-06T15:31:54.670Z,40.38
2022-10-06T15:34:25.333Z,42.04
2022-10-06T15:36:56.524Z,41.66
2022-10-06T15:39:53.323Z,41.42
2022-10-06T15:42:24.317Z,42.97
2022-10-06T15:44:54.736Z,44.07
2022-10-06T15:47:24.983Z,42.31
2022-10-06T15:50:03.904Z,43.00
2022-10-06T15:52:39.460Z,42.95
2022-10-06T15:55:15.782Z,41.96
2022-10-06T15:57:45.903Z,46.82
2022-10-06T16:00:19.159Z,47.71
2022-10-06T16:02:57.416Z,49.82
2022-10-06T16:05:44.451Z,50.36
2022-10-06T16:08:17.272Z,48.51
2022-10-06T16:10:50.674Z,44.76
2022-10-06T16:13:20.067Z,44.43
2022-10-06T16:15:57.591Z,45.96
2022-10-06T16:18:31.900Z,44.76
2022-10-06T16:20:58.898Z,46.83
2022-10-06T16:23:28.305Z,48.27
2022-10-06T16:25:55.217Z,47.04
2022-10-06T16:28:27.078Z,50.02
2022-10-06T16:30:57.343Z,49.21
2022-10-06T16:33:28.782Z,49.03
2022-10-06T16:36:00.086Z,47.13
2022-10-06T16:38:33.588Z,46.16
2022-10-06T16:41:05.546Z,46.18
2022-10-06T16:43:35.975Z,45.69
2022-10-06T16:46:08.313Z,45.10
2022-10-06T16:48:42.311Z,46.92
2022-10-06T16:51:24.182Z,45.89
2022-10-06T16:53:54.224Z,46.38
2022-10-06T16:56:32.323Z,45.82
2022-10-06T16:59:03.932Z,45.99
2022-10-06T17:01:40.642Z,46.48
2022-10-06T17:04:13.280Z,46.48
2022-10-06T17:06:44.686Z,46.90
2022-10-06T17:09:20.543Z,46.40
2022-10-06T17:11:55.982Z,46.09
2022-10-06T17:14:24.315Z,46.67
2022-10-06T17:17:01.870Z,46.31
2022-10-06T17:19:32.285Z,47.30
2022-10-06T17:22:01.957Z,47.38
2022-10-06T17:24:32.135Z,46.80
2022-10-06T17:27:04.070Z,47.71
2022-10-06T17:29:30.937Z,51.62
2022-10-06T17:31:59.596Z,55.75
2022-10-06T17:34:41.345Z,56.74
2022-10-06T17:37:20.923Z,52.56
2022-10-06T17:39:54.818Z,50.78
2022-10-06T17:42:24.532Z,49.89
2022-10-06T17:45:00.528Z,50.44
2022-10-06T17:47:39.052Z,50.33
2022-10-06T17:50:22.489Z,50.41
2022-10-06T17:52:53.903Z,50.48
2022-10-06T17:55:30.129Z,54.12
2022-10-06T17:57:59.363Z,56.63
2022-10-06T18:00:37.019Z,58.85
2022-10-06T18:03:09.898Z,59.02
2022-10-06T18:05:37.983Z,59.84
2022-10-06T18:08:14.217Z,58.30
2022-10-06T18:11:23.390Z,59.23
2022-10-06T18:13:53.215Z,58.08
2022-10-06T18:16:27.727Z,57.43
2022-10-06T18:18:56.450Z,58.12
2022-10-06T18:21:26.398Z,55.43
2022-10-06T18:24:09.193Z,57.85
2022-10-06T18:26:40.659Z,57.46
2022-10-06T18:29:09.439Z,57.60
2022-10-06T18:31:48.755Z,60.12
2022-10-06T18:37:10.775Z,59.00
2022-10-06T18:39:40.196Z,57.81
2022-10-06T18:42:08.505Z,57.08
2022-10-06T18:44:54.730Z,58.95
2022-10-06T18:47:44.746Z,62.06
2022-10-06T18:50:23.197Z,61.74
2022-10-06T18:52:50.193Z,61.79
2022-10-06T18:55:17.350Z,59.73
2022-10-06T18:57:45.325Z,59.98
2022-10-06T19:00:15.805Z,58.18
2022-10-06T19:03:02.885Z,58.04
2022-10-06T19:05:31.071Z,58.33
2022-10-06T19:08:08.238Z,57.91
2022-10-06T19:11:20.742Z,57.73
2022-10-06T19:13:49.404Z,59.78
2022-10-06T19:16:42.301Z,59.50
2022-10-06T19:19:19.568Z,58.10
2022-10-06T19:22:26.053Z,57.63
2022-10-06T19:25:02.059Z,57.20
2022-10-06T19:27:33.490Z,58.11
2022-10-06T19:30:05.734Z,58.52
2022-10-06T19:32:36.317Z,58.30
2022-10-06T19:35:10.683Z,58.42
2022-10-06T19:37:42.341Z,58.03
2022-10-06T19:40:32.846Z,60.57
2022-10-06T19:43:05.342Z,61.87
2022-10-06T19:45:32.227Z,61.07
2022-10-06T19:48:10.822Z,62.60
2022-10-06T19:50:39.159Z,63.69
2022-10-06T19:53:14.695Z,65.30
2022-10-06T19:56:01.597Z,62.02
2022-10-06T19:58:33.540Z,61.54
2022-10-06T20:01:13.368Z,59.71
2022-10-06T20:03:41.731Z,59.65
2022-10-06T20:06:37.078Z,61.78
2022-10-06T20:09:23.562Z,62.21
2022-10-06T20:11:55.516Z,61.84
2022-10-06T20:14:27.099Z,60.70
2022-10-06T20:17:03.917Z,60.87
2022-10-06T20:19:33.377Z,61.96
2022-10-06T20:22:23.167Z,60.04
2022-10-06T20:24:54.557Z,61.37
2022-10-06T20:27:21.715Z,60.40
2022-10-06T20:30:15.245Z,64.41
2022-10-06T20:32:44.707Z,63.05
2022-10-06T20:35:26.845Z,62.17
2022-10-06T20:37:59.735Z,61.81
2022-10-06T20:40:49.436Z,64.39
2022-10-06T20:43:19.165Z,63.83
2022-10-06T20:46:07.960Z,64.27
2022-10-06T20:48:42.878Z,61.31
2022-10-06T20:51:32.786Z,62.21
2022-10-06T20:54:05.552Z,62.69
2022-10-06T20:56:34.929Z,64.58
2022-10-06T20:59:03.675Z,62.39
2022-10-06T21:01:39.947Z,61.91
2022-10-06T21:04:12.914Z,61.54
2022-10-06T21:07:26.808Z,69.42
2022-10-06T21:10:19.056Z,65.50
2022-10-06T21:13:15.163Z,63.19
2022-10-06T21:15:47.465Z,60.48
2022-10-06T21:18:24.512Z,59.91
2022-10-06T21:21:09.287Z,59.55
2022-10-06T21:23:44.758Z,59.61
2022-10-06T21:26:18.056Z,59.59
2022-10-06T21:28:55.217Z,65.52
2022-10-06T21:31:29.508Z,59.27
2022-10-06T21:34:03.668Z,59.50
2022-10-06T21:36:50.621Z,59.02
2022-10-06T21:39:25.013Z,61.03
2022-10-06T21:41:55.102Z,64.58
2022-10-06T21:44:26.697Z,63.27
2022-10-06T21:47:13.585Z,68.13
2022-10-06T21:50:16.012Z,65.77
2022-10-06T21:53:05.382Z,72.53
2022-10-06T21:55:35.496Z,66.71
2022-10-06T21:58:11.381Z,63.58
2022-10-06T22:00:49.375Z,62.79
2022-10-06T22:03:21.764Z,63.81
2022-10-06T22:05:57.589Z,69.16
2022-10-06T22:08:45.904Z,73.17
2022-10-06T22:11:23.065Z,69.67
2022-10-06T22:13:57.755Z,68.17
2022-10-06T22:16:37.211Z,69.46
2022-10-06T22:19:11.559Z,68.87
2022-10-06T22:22:12.960Z,70.23
2022-10-06T22:24:46.040Z,68.00
2022-10-06T22:27:16.528Z,68.76
2022-10-06T22:29:51.107Z,63.34
2022-10-06T22:32:29.106Z,63.30
2022-10-06T22:35:07.341Z,62.85
2022-10-06T22:37:41.753Z,62.36
2022-10-06T22:40:25.632Z,65.48
2022-10-06T22:42:56.240Z,63.10
2022-10-06T22:45:35.754Z,68.56
2022-10-06T22:48:08.455Z,69.83
2022-10-06T22:50:47.436Z,64.70
2022-10-06T22:53:41.124Z,62.60
2022-10-06T22:59:16.284Z,62.37
2022-10-06T23:02:01.145Z,61.70
2022-10-06T23:04:33.872Z,65.54
2022-10-06T23:07:26.898Z,62.57
2022-10-06T23:10:06.339Z,62.11
2022-10-06T23:12:46.737Z,67.88
2022-10-06T23:15:30.712Z,74.25
2022-10-06T23:18:04.780Z,70.08
2022-10-06T23:20:41.962Z,66.39
2022-10-06T23:23:28.819Z,69.57
2022-10-06T23:26:07.944Z,74.26
2022-10-06T23:28:40.911Z,67.26
2022-10-06T23:31:29.489Z,64.88
2022-10-06T23:33:59.921Z,64.69
2022-10-06T23:36:33.097Z,64.13
2022-10-06T23:39:00.093Z,64.55
2022-10-06T23:41:35.723Z,66.26
2022-10-06T23:44:09.589Z,65.33
2022-10-06T23:46:36.388Z,65.12
2022-10-06T23:49:14.927Z,64.91
2022-10-06T23:51:43.306Z,68.74
2022-10-06T23:54:19.223Z,78.68
2022-10-06T23:56:55.796Z,80.06
2022-10-06T23:59:23.375Z,71.05
